createdAt,value
2022-11-20T00:01:38.976Z,96.50
2022-11-20T00:04:07.665Z,95.62
2022-11-20T00:06:36.294Z,96.49
2022-11-20T00:09:06.185Z,97.13
2022-11-20T00:11:36.164Z,96.40
2022-11-20T00:14:04.845Z,95.47
2022-11-20T00:16:34.713Z,95.83
2022-11-20T00:19:03.371Z,95.07
2022-11-20T00:21:32.323Z,95.61
2022-11-20T00:24:01.313Z,95.03
2022-11-20T00:26:30.200Z,96.68
2022-11-20T00:29:01.497Z,97.20
2022-11-20T00:31:30.813Z,95.33
2022-11-20T00:33:59.492Z,95.52
2022-11-20T00:36:29.435Z,94.87
2022-11-20T00:38:59.350Z,94.64
2022-11-20T00:41:28.969Z,94.57
2022-11-20T00:43:58.243Z,94.35
2022-11-20T00:46:28.987Z,94.92
2022-11-20T00:48:58.046Z,94.53
2022-11-20T00:51:28.111Z,96.80
2022-11-20T00:53:57.535Z,96.37
2022-11-20T00:56:26.246Z,94.38
2022-11-20T00:58:55.102Z,95.08
2022-11-20T01:01:26.076Z,94.63
2022-11-20T01:03:58.419Z,93.74
2022-11-20T01:06:28.324Z,95.14
2022-11-20T01:08:58.759Z,93.21
2022-11-20T01:11:28.892Z,92.81
2022-11-20T01:13:59.252Z,92.71
2022-11-20T01:16:29.684Z,92.36
2022-11-20T01:19:01.143Z,90.89
2022-11-20T01:21:32.262Z,91.92
2022-11-20T01:24:01.346Z,91.51
2022-11-20T01:26:32.235Z,89.85
2022-11-20T01:29:01.475Z,89.32
2022-11-20T01:31:31.720Z,89.84
2022-11-20T01:34:03.058Z,91.44
2022-11-20T01:36:33.335Z,91.31
2022-11-20T01:39:06.503Z,88.46
2022-11-20T01:41:53.850Z,89.96
2022-11-20T01:44:24.916Z,88.96
2022-11-20T01:46:57.634Z,89.82
2022-11-20T01:49:31.832Z,88.19
2022-11-20T01:52:02.954Z,90.72
2022-11-20T01:54:37.346Z,91.17
2022-11-20T01:57:08.594Z,91.23
2022-11-20T01:59:39.867Z,89.18
2022-11-20T02:02:08.516Z,89.14
2022-11-20T02:04:38.662Z,89.21
2022-11-20T02:07:07.649Z,89.89
2022-11-20T02:09:36.275Z,90.59
2022-11-20T02:12:05.396Z,91.04
2022-11-20T02:14:33.077Z,90.29
2022-11-20T02:17:01.779Z,91.18
2022-11-20T02:19:32.266Z,91.04
2022-11-20T02:22:08.884Z,90.27
2022-11-20T02:24:38.957Z,89.97
2022-11-20T02:27:10.301Z,91.17
2022-11-20T02:29:42.985Z,91.26
2022-11-20T02:32:20.235Z,90.32
2022-11-20T02:34:48.976Z,90.76
2022-11-20T02:37:17.878Z,89.63
2022-11-20T02:39:49.015Z,91.05
2022-11-20T02:42:18.017Z,89.06
2022-11-20T02:44:46.583Z,90.06
2022-11-20T02:47:15.268Z,89.76
2022-11-20T02:49:43.891Z,89.55
2022-11-20T02:52:12.497Z,89.31
2022-11-20T02:54:41.060Z,89.49
2022-11-20T02:57:10.986Z,90.50
2022-11-20T02:59:39.569Z,91.72
2022-11-20T03:02:08.183Z,91.98
2022-11-20T03:04:36.846Z,90.89
2022-11-20T03:07:05.961Z,90.75
2022-11-20T03:09:34.596Z,91.67
2022-11-20T03:12:03.216Z,91.27
2022-11-20T03:14:33.448Z,90.86
2022-11-20T03:17:02.028Z,90.88
2022-11-20T03:19:30.655Z,90.42
2022-11-20T03:21:59.210Z,91.22
2022-11-20T03:24:28.140Z,91.48
2022-11-20T03:26:56.759Z,91.81
2022-11-20T03:29:25.445Z,91.38
2022-11-20T03:31:55.343Z,92.05
2022-11-20T03:34:24.146Z,90.27
2022-11-20T03:36:52.772Z,90.57
2022-11-20T03:39:21.732Z,91.10
2022-11-20T03:41:50.531Z,90.48
2022-11-20T03:44:19.106Z,91.03
2022-11-20T03:46:47.696Z,90.30
2022-11-20T03:49:17.840Z,89.58
2022-11-20T03:51:46.461Z,89.47
2022-11-20T03:54:15.100Z,88.93
2022-11-20T03:56:43.738Z,88.23
2022-11-20T03:59:12.682Z,87.86
2022-11-20T04:01:45.480Z,88.66
2022-11-20T04:04:18.210Z,89.15
2022-11-20T04:06:46.769Z,88.36
2022-11-20T04:09:16.685Z,89.11
2022-11-20T04:11:45.337Z,88.45
2022-11-20T04:14:15.916Z,87.93
2022-11-20T04:16:44.680Z,89.04
2022-11-20T04:19:14.834Z,89.92
2022-11-20T04:21:45.788Z,89.31
2022-11-20T04:24:14.362Z,87.87
2022-11-20T04:26:43.015Z,87.59
2022-11-20T04:29:12.999Z,88.41
2022-11-20T04:31:41.566Z,89.07
2022-11-20T04:34:12.552Z,89.79
2022-11-20T04:36:41.141Z,89.56
2022-11-20T04:39:16.247Z,88.27
2022-11-20T04:41:44.926Z,87.78
2022-11-20T04:44:13.587Z,87.84
2022-11-20T04:46:43.835Z,88.50
2022-11-20T04:49:13.661Z,88.64
2022-11-20T04:51:42.332Z,87.84
2022-11-20T04:54:11.687Z,88.65
2022-11-20T04:56:41.639Z,89.75
2022-11-20T04:59:10.259Z,89.34
2022-11-20T05:01:38.877Z,88.07
2022-11-20T05:04:07.888Z,87.97
2022-11-20T05:06:36.484Z,88.99
2022-11-20T05:09:05.238Z,89.63
2022-11-20T05:11:34.003Z,88.27
2022-11-20T05:14:03.992Z,87.93
2022-11-20T05:16:32.744Z,87.56
2022-11-20T05:19:01.338Z,88.02
2022-11-20T05:21:32.236Z,88.09
2022-11-20T05:24:00.805Z,88.71
2022-11-20T05:26:29.353Z,88.52
2022-11-20T05:28:58.018Z,88.01
2022-11-20T05:31:28.546Z,88.62
2022-11-20T05:33:58.379Z,88.68
2022-11-20T05:36:27.178Z,87.53
2022-11-20T05:39:01.217Z,90.08
2022-11-20T05:41:30.713Z,89.38
2022-11-20T05:44:00.002Z,87.32
2022-11-20T05:46:29.999Z,90.22
2022-11-20T05:48:59.434Z,89.29
2022-11-20T05:51:28.372Z,90.55
2022-11-20T05:53:58.472Z,90.57
2022-11-20T05:56:27.132Z,88.97
2022-11-20T05:58:55.685Z,89.79
2022-11-20T06:01:25.426Z,87.55
2022-11-20T06:03:56.187Z,89.76
2022-11-20T06:06:26.092Z,90.06
2022-11-20T06:08:54.684Z,90.75
2022-11-20T06:11:23.265Z,90.34
2022-11-20T06:13:51.914Z,88.73
2022-11-20T06:16:22.700Z,89.58
2022-11-20T06:18:51.346Z,88.86
2022-11-20T06:21:22.956Z,86.77
2022-11-20T06:23:52.515Z,87.46
2022-11-20T06:26:23.007Z,88.47
2022-11-20T06:28:52.175Z,87.45
2022-11-20T06:31:22.383Z,85.37
2022-11-20T06:33:51.834Z,84.96
2022-11-20T06:36:23.704Z,84.39
2022-11-20T06:38:52.321Z,84.95
2022-11-20T06:41:22.678Z,85.64
2022-11-20T06:43:51.896Z,84.97
2022-11-20T06:46:21.124Z,84.35
2022-11-20T06:48:50.451Z,84.77
2022-11-20T06:51:20.805Z,85.44
2022-11-20T06:53:49.509Z,85.53
2022-11-20T06:56:18.195Z,85.00
2022-11-20T06:58:46.762Z,84.91
2022-11-20T07:01:16.689Z,84.67
2022-11-20T07:03:48.028Z,84.15
2022-11-20T07:06:21.344Z,83.35
2022-11-20T07:08:52.446Z,84.41
2022-11-20T07:11:21.064Z,85.58
2022-11-20T07:13:49.652Z,85.00
2022-11-20T07:16:18.465Z,83.67
2022-11-20T07:18:50.487Z,83.22
2022-11-20T07:21:21.032Z,83.70
2022-11-20T07:23:49.624Z,84.12
2022-11-20T07:26:18.238Z,84.47
2022-11-20T07:28:47.306Z,84.02
2022-11-20T07:31:18.972Z,84.86
2022-11-20T07:33:47.953Z,83.79
2022-11-20T07:36:16.546Z,83.24
2022-11-20T07:38:46.510Z,83.14
2022-11-20T07:41:15.072Z,81.74
2022-11-20T07:43:43.706Z,81.75
2022-11-20T07:46:12.286Z,82.28
2022-11-20T07:48:40.845Z,82.70
2022-11-20T07:51:09.594Z,82.51
2022-11-20T07:53:38.147Z,83.42
2022-11-20T07:56:08.834Z,83.66
2022-11-20T07:58:37.475Z,83.87
2022-11-20T08:01:06.883Z,84.15
2022-11-20T08:03:36.075Z,83.29
2022-11-20T08:06:04.859Z,82.03
2022-11-20T08:08:34.263Z,82.90
2022-11-20T08:11:21.452Z,84.09
2022-11-20T08:14:08.733Z,83.97
2022-11-20T08:16:37.340Z,83.44
2022-11-20T08:19:06.752Z,83.08
2022-11-20T08:21:38.343Z,83.85
2022-11-20T08:24:08.193Z,84.36
2022-11-20T08:26:36.984Z,84.62
2022-11-20T08:29:08.259Z,84.95
2022-11-20T08:31:37.215Z,84.50
2022-11-20T08:34:09.237Z,84.75
2022-11-20T08:36:38.927Z,84.28
2022-11-20T08:39:07.534Z,85.35
2022-11-20T08:41:37.655Z,84.48
2022-11-20T08:44:09.009Z,85.11
2022-11-20T08:46:39.522Z,85.34
2022-11-20T08:49:09.438Z,84.72
2022-11-20T08:51:38.581Z,84.10
2022-11-20T08:54:07.673Z,84.63
2022-11-20T08:56:37.292Z,84.62
2022-11-20T08:59:23.422Z,84.96
2022-11-20T09:01:56.071Z,84.42
2022-11-20T09:04:24.683Z,85.29
2022-11-20T09:06:53.406Z,84.88
2022-11-20T09:09:22.304Z,85.30
2022-11-20T09:11:51.869Z,85.51
2022-11-20T09:14:22.252Z,84.71
2022-11-20T09:16:50.830Z,85.09
2022-11-20T09:19:36.025Z,84.37
2022-11-20T09:22:05.182Z,85.07
2022-11-20T09:24:33.954Z,85.21
2022-11-20T09:27:04.986Z,85.13
2022-11-20T09:29:34.968Z,85.77
2022-11-20T09:32:03.718Z,85.82
2022-11-20T09:34:32.382Z,85.49
2022-11-20T09:37:04.482Z,84.92
2022-11-20T09:39:39.611Z,85.20
2022-11-20T09:42:22.225Z,85.32
2022-11-20T09:45:03.497Z,84.79
2022-11-20T09:47:39.239Z,84.08
2022-11-20T09:50:21.800Z,84.66
2022-11-20T09:53:01.691Z,83.91
2022-11-20T09:55:31.418Z,83.84
2022-11-20T09:58:01.214Z,83.53
2022-11-20T10:00:31.360Z,83.12
2022-11-20T10:03:03.359Z,83.73
2022-11-20T10:05:34.261Z,83.98
2022-11-20T10:08:11.533Z,83.42
2022-11-20T10:10:44.237Z,83.14
2022-11-20T10:13:22.694Z,83.34
2022-11-20T10:16:01.344Z,83.82
2022-11-20T10:18:41.661Z,82.70
2022-11-20T10:21:14.221Z,83.21
2022-11-20T10:23:54.087Z,83.12
2022-11-20T10:26:28.715Z,82.65
2022-11-20T10:29:12.754Z,83.75
2022-11-20T10:31:44.140Z,83.27
2022-11-20T10:34:22.989Z,82.54
2022-11-20T10:36:56.374Z,83.16
2022-11-20T10:39:32.385Z,83.83
2022-11-20T10:42:01.812Z,85.49
2022-11-20T10:44:52.549Z,86.92
2022-11-20T10:47:27.748Z,88.03
2022-11-20T10:49:57.876Z,88.57
2022-11-20T10:52:31.373Z,89.13
2022-11-20T10:55:07.512Z,90.94
2022-11-20T10:57:49.206Z,90.50
2022-11-20T11:00:18.500Z,91.12
2022-11-20T11:02:49.819Z,92.01
2022-11-20T11:05:30.129Z,92.31
2022-11-20T11:07:59.576Z,92.87
2022-11-20T11:10:33.977Z,92.44
2022-11-20T11:13:03.163Z,94.05
2022-11-20T11:15:39.652Z,94.08
2022-11-20T11:18:12.377Z,92.74
2022-11-20T11:20:40.973Z,93.41
2022-11-20T11:23:29.065Z,94.97
2022-11-20T11:26:02.531Z,95.52
2022-11-20T11:28:31.312Z,96.08
2022-11-20T11:30:59.899Z,96.60
2022-11-20T11:33:31.023Z,96.08
2022-11-20T11:36:02.006Z,93.85
2022-11-20T11:38:33.071Z,94.80
2022-11-20T11:41:02.057Z,95.45
2022-11-20T11:43:49.799Z,94.72
2022-11-20T11:46:29.896Z,94.59
2022-11-20T11:49:01.926Z,93.35
2022-11-20T11:51:35.308Z,93.63
2022-11-20T11:54:10.464Z,90.60
2022-11-20T11:56:39.107Z,91.09
2022-11-20T11:59:11.859Z,91.16
2022-11-20T12:01:45.148Z,90.83
2022-11-20T12:04:19.596Z,88.13
2022-11-20T12:06:52.406Z,88.08
2022-11-20T12:09:22.677Z,87.04
2022-11-20T12:11:54.786Z,83.01
2022-11-20T12:14:29.354Z,83.63
2022-11-20T12:16:58.601Z,81.99
2022-11-20T12:19:29.860Z,82.13
2022-11-20T12:22:04.963Z,82.89
2022-11-20T12:24:45.243Z,82.00
2022-11-20T12:27:46.431Z,81.71
2022-11-20T12:30:16.723Z,81.96
2022-11-20T12:33:11.826Z,78.23
2022-11-20T12:35:55.101Z,73.99
2022-11-20T12:38:35.962Z,74.41
2022-11-20T12:41:11.922Z,74.89
2022-11-20T12:44:13.511Z,75.09
2022-11-20T12:46:45.160Z,74.70
2022-11-20T12:49:27.567Z,73.42
2022-11-20T12:52:18.526Z,72.74
2022-11-20T12:55:12.133Z,72.77
2022-11-20T12:57:50.312Z,73.96
2022-11-20T13:00:20.858Z,73.42
2022-11-20T13:03:24.584Z,71.96
2022-11-20T13:05:58.147Z,72.48
2022-11-20T13:08:31.691Z,69.14
2022-11-20T13:11:05.564Z,70.42
2022-11-20T13:13:41.795Z,69.03
2022-11-20T13:16:14.611Z,67.56
2022-11-20T13:18:46.101Z,67.84
2022-11-20T13:21:19.910Z,68.04
2022-11-20T13:23:50.191Z,68.04
2022-11-20T13:26:21.571Z,67.73
2022-11-20T13:29:13.337Z,69.00
2022-11-20T13:31:45.585Z,67.33
2022-11-20T13:34:16.429Z,68.47
2022-11-20T13:36:52.680Z,71.01
2022-11-20T13:39:29.158Z,68.79
2022-11-20T13:41:58.543Z,67.82
2022-11-20T13:44:31.153Z,66.78
2022-11-20T13:46:59.795Z,66.58
2022-11-20T13:49:31.081Z,65.61
2022-11-20T13:52:08.438Z,65.18
2022-11-20T13:54:58.190Z,63.69
2022-11-20T13:57:59.442Z,64.90
2022-11-20T14:00:28.348Z,65.40
2022-11-20T14:03:04.797Z,63.76
2022-11-20T14:05:37.348Z,64.59
2022-11-20T14:08:07.431Z,65.01
2022-11-20T14:10:40.104Z,64.76
2022-11-20T14:13:12.948Z,65.72
2022-11-20T14:15:45.201Z,63.13
2022-11-20T14:18:16.110Z,63.53
2022-11-20T14:20:45.260Z,64.58
2022-11-20T14:23:13.908Z,64.63
2022-11-20T14:25:47.101Z,65.36
2022-11-20T14:28:23.829Z,65.32
2022-11-20T14:30:52.491Z,65.27
2022-11-20T14:33:25.704Z,67.10
2022-11-20T14:35:56.002Z,66.81
2022-11-20T14:38:27.240Z,65.45
2022-11-20T14:41:08.199Z,66.57
2022-11-20T14:43:38.675Z,67.37
2022-11-20T14:46:09.579Z,68.75
2022-11-20T14:48:40.853Z,67.63
2022-11-20T14:51:11.389Z,69.30
2022-11-20T14:53:40.027Z,67.97
2022-11-20T14:56:11.333Z,68.99
2022-11-20T14:58:39.906Z,68.28
2022-11-20T15:01:13.696Z,70.71
2022-11-20T15:03:43.176Z,70.99
2022-11-20T15:06:13.956Z,69.98
2022-11-20T15:08:52.738Z,70.57
2022-11-20T15:11:27.880Z,71.37
2022-11-20T15:13:56.483Z,71.76
2022-11-20T15:16:25.998Z,72.67
2022-11-20T15:18:54.703Z,72.83
2022-11-20T15:21:23.636Z,72.39
2022-11-20T15:23:52.948Z,72.88
2022-11-20T15:26:27.357Z,72.46
2022-11-20T15:28:57.139Z,72.14
2022-11-20T15:31:27.415Z,72.87
2022-11-20T15:34:12.822Z,73.04
2022-11-20T15:36:41.917Z,73.99
2022-11-20T15:39:11.926Z,73.94
2022-11-20T15:41:41.884Z,74.19
2022-11-20T15:44:10.509Z,75.51
2022-11-20T15:46:43.243Z,76.18
2022-11-20T15:49:14.473Z,75.87
2022-11-20T15:51:45.214Z,77.55
2022-11-20T15:54:15.005Z,77.88
2022-11-20T15:56:45.140Z,78.91
2022-11-20T15:59:15.456Z,77.86
2022-11-20T16:01:44.541Z,77.42
2022-11-20T16:04:13.981Z,79.17
2022-11-20T16:06:43.052Z,78.30
2022-11-20T16:09:11.834Z,79.30
2022-11-20T16:11:40.751Z,79.85
2022-11-20T16:14:30.608Z,79.80
2022-11-20T16:16:59.214Z,80.66
2022-11-20T16:19:27.864Z,80.29
2022-11-20T16:22:02.301Z,81.40
2022-11-20T16:24:31.912Z,82.84
2022-11-20T16:27:00.561Z,82.47
2022-11-20T16:29:30.535Z,83.78
2022-11-20T16:31:59.148Z,84.21
2022-11-20T16:34:27.976Z,84.52
2022-11-20T16:36:57.160Z,85.65
2022-11-20T16:39:27.147Z,84.55
2022-11-20T16:41:55.770Z,83.88
2022-11-20T16:44:24.631Z,84.42
2022-11-20T16:46:54.908Z,84.34
2022-11-20T16:49:23.533Z,83.13
2022-11-20T16:51:52.227Z,84.13
2022-11-20T16:54:21.599Z,83.57
2022-11-20T16:56:51.837Z,84.62
2022-11-20T16:59:20.951Z,84.00
2022-11-20T17:01:49.945Z,84.83
2022-11-20T17:04:20.083Z,85.30
2022-11-20T17:06:48.772Z,85.45
2022-11-20T17:09:17.421Z,85.00
2022-11-20T17:11:46.084Z,85.21
2022-11-20T17:14:14.776Z,84.36
2022-11-20T17:16:43.412Z,84.49
2022-11-20T17:19:12.086Z,84.37
2022-11-20T17:21:42.521Z,84.34
2022-11-20T17:24:12.460Z,84.96
2022-11-20T17:26:42.148Z,85.49
2022-11-20T17:29:12.845Z,85.49
2022-11-20T17:31:42.015Z,85.80
2022-11-20T17:34:12.922Z,86.68
2022-11-20T17:36:45.659Z,85.53
2022-11-20T17:39:15.774Z,84.43
2022-11-20T17:41:44.696Z,84.15
2022-11-20T17:44:13.947Z,84.00
2022-11-20T17:46:42.585Z,83.81
2022-11-20T17:49:11.212Z,83.46
2022-11-20T17:51:40.678Z,82.35
2022-11-20T17:54:12.035Z,82.08
2022-11-20T17:56:58.104Z,82.42
2022-11-20T17:59:26.686Z,80.82
2022-11-20T18:01:57.632Z,80.56
2022-11-20T18:04:29.542Z,78.05
2022-11-20T18:06:58.180Z,78.92
2022-11-20T18:09:28.416Z,78.69
2022-11-20T18:11:57.209Z,78.64
2022-11-20T18:14:32.458Z,77.16
2022-11-20T18:17:03.102Z,78.00
2022-11-20T18:19:37.611Z,77.68
2022-11-20T18:22:09.792Z,77.06
2022-11-20T18:24:40.087Z,77.23
2022-11-20T18:27:10.132Z,78.07
2022-11-20T18:29:38.842Z,74.40
2022-11-20T18:32:07.550Z,75.19
2022-11-20T18:34:36.182Z,74.15
2022-11-20T18:37:04.865Z,75.08
2022-11-20T18:39:33.709Z,75.35
2022-11-20T18:42:21.306Z,76.70
2022-11-20T18:44:53.595Z,79.51
2022-11-20T18:47:24.910Z,79.02
2022-11-20T18:49:57.032Z,80.90
2022-11-20T18:52:27.301Z,83.59
2022-11-20T18:54:56.537Z,83.83
2022-11-20T18:57:28.416Z,84.65
2022-11-20T19:00:02.164Z,86.83
2022-11-20T19:02:40.553Z,86.65
2022-11-20T19:05:10.654Z,82.94
2022-11-20T19:07:39.384Z,83.54
2022-11-20T19:10:08.669Z,86.85
2022-11-20T19:12:38.678Z,85.38
2022-11-20T19:15:08.278Z,82.85
2022-11-20T19:17:36.947Z,83.29
2022-11-20T19:20:06.267Z,83.52
2022-11-20T19:22:34.966Z,82.49
2022-11-20T19:25:03.611Z,85.50
2022-11-20T19:27:32.214Z,86.21
2022-11-20T19:30:03.275Z,82.98
2022-11-20T19:32:32.465Z,83.69
2022-11-20T19:35:01.142Z,83.63
2022-11-20T19:37:29.730Z,84.89
2022-11-20T19:39:59.689Z,83.20
2022-11-20T19:42:28.478Z,85.20
2022-11-20T19:44:58.183Z,85.48
2022-11-20T19:47:52.789Z,84.65
2022-11-20T19:50:18.025Z,84.92
2022-11-20T19:52:46.649Z,86.08
2022-11-20T19:55:15.257Z,85.86
2022-11-20T19:57:43.916Z,84.54
2022-11-20T20:00:17.231Z,82.61
2022-11-20T20:02:52.075Z,82.87
2022-11-20T20:05:20.723Z,85.13
2022-11-20T20:07:49.455Z,83.73
2022-11-20T20:10:20.261Z,84.31
2022-11-20T20:12:48.853Z,81.87
2022-11-20T20:15:17.634Z,84.04
2022-11-20T20:17:46.246Z,83.17
2022-11-20T20:20:16.342Z,81.60
2022-11-20T20:22:44.979Z,82.39
2022-11-20T20:25:14.181Z,81.40
2022-11-20T20:27:42.795Z,80.54
2022-11-20T20:30:12.627Z,81.09
2022-11-20T20:32:41.268Z,80.95
2022-11-20T20:35:10.505Z,82.13
2022-11-20T20:37:40.497Z,81.32
2022-11-20T20:40:14.863Z,81.44
2022-11-20T20:42:44.074Z,81.54
2022-11-20T20:45:12.682Z,80.93
2022-11-20T20:47:42.225Z,82.14
2022-11-20T20:50:12.263Z,82.28
2022-11-20T20:52:42.379Z,82.26
2022-11-20T20:55:11.642Z,82.82
2022-11-20T20:57:40.363Z,83.28
2022-11-20T21:00:10.282Z,83.31
2022-11-20T21:02:38.968Z,83.03
2022-11-20T21:05:08.151Z,83.94
2022-11-20T21:07:57.144Z,83.60
2022-11-20T21:10:27.228Z,83.28
2022-11-20T21:12:55.886Z,82.79
2022-11-20T21:15:24.508Z,82.95
2022-11-20T21:17:53.144Z,82.50
2022-11-20T21:20:39.266Z,83.99
2022-11-20T21:23:10.231Z,83.53
2022-11-20T21:25:41.156Z,83.53
2022-11-20T21:28:14.245Z,83.33
2022-11-20T21:30:45.682Z,83.73
2022-11-20T21:33:14.442Z,83.44
2022-11-20T21:35:43.046Z,83.71
2022-11-20T21:38:11.737Z,83.82
2022-11-20T21:40:41.789Z,83.86
2022-11-20T21:43:10.435Z,83.00
2022-11-20T21:45:39.044Z,83.94
2022-11-20T21:48:07.698Z,83.86
2022-11-20T21:50:36.399Z,84.43
2022-11-20T21:53:05.020Z,83.74
2022-11-20T21:55:33.643Z,83.43
2022-11-20T21:58:03.564Z,83.78
2022-11-20T22:00:32.139Z,83.65
2022-11-20T22:03:01.416Z,83.04
2022-11-20T22:05:30.001Z,83.28
2022-11-20T22:07:58.618Z,83.45
2022-11-20T22:10:27.935Z,83.82
2022-11-20T22:13:17.053Z,84.45
2022-11-20T22:16:00.287Z,84.97
2022-11-20T22:18:29.748Z,84.99
2022-11-20T22:20:58.445Z,84.78
2022-11-20T22:23:27.076Z,84.65
2022-11-20T22:25:55.647Z,83.92
2022-11-20T22:28:24.261Z,84.17
2022-11-20T22:30:54.219Z,84.23
2022-11-20T22:33:23.020Z,84.53
2022-11-20T22:35:51.793Z,84.83
2022-11-20T22:38:20.441Z,84.72
2022-11-20T22:40:49.059Z,84.97
2022-11-20T22:43:17.724Z,85.37
2022-11-20T22:45:46.647Z,85.62
2022-11-20T22:48:16.663Z,85.41
2022-11-20T22:50:45.307Z,84.46
2022-11-20T22:53:13.939Z,84.90
2022-11-20T22:55:42.530Z,85.44
2022-11-20T22:58:11.093Z,85.59
2022-11-20T23:00:39.699Z,85.91
2022-11-20T23:03:08.351Z,86.04
2022-11-20T23:05:38.352Z,85.90
2022-11-20T23:08:07.084Z,85.84
2022-11-20T23:10:35.730Z,86.02
2022-11-20T23:13:04.403Z,86.78
2022-11-20T23:15:34.471Z,86.87
2022-11-20T23:18:03.123Z,87.28
2022-11-20T23:20:31.713Z,86.26
2022-11-20T23:23:01.697Z,86.45
2022-11-20T23:25:30.415Z,86.68
2022-11-20T23:27:59.003Z,86.01
2022-11-20T23:30:27.582Z,85.64
2022-11-20T23:32:56.202Z,85.69
2022-11-20T23:35:24.848Z,85.74
2022-11-20T23:37:53.475Z,86.13
2022-11-20T23:40:23.521Z,85.93
2022-11-20T23:43:09.991Z,85.93
2022-11-20T23:45:39.623Z,85.99
2022-11-20T23:48:08.724Z,86.32
2022-11-20T23:50:37.636Z,87.05
2022-11-20T23:53:06.455Z,87.15
2022-11-20T23:55:36.653Z,87.17
2022-11-20T23:58:05.637Z,87.74
